createdAt,value
2024-05-09T00:00:36.090Z,24.63
2024-05-09T00:03:10.879Z,22.80
2024-05-09T00:05:39.009Z,23.90
2024-05-09T00:08:06.049Z,23.83
2024-05-09T00:10:37.118Z,21.17
2024-05-09T00:13:05.807Z,20.10
2024-05-09T00:15:33.605Z,20.23
2024-05-09T00:18:00.944Z,22.77
2024-05-09T00:20:33.557Z,21.80
2024-05-09T00:23:07.047Z,23.83
2024-05-09T00:25:34.885Z,22.17
2024-05-09T00:28:02.114Z,23.30
2024-05-09T00:30:34.335Z,23.20
2024-05-09T00:33:03.806Z,21.67
2024-05-09T00:35:34.183Z,22.67
2024-05-09T00:38:01.298Z,24.70
2024-05-09T00:40:38.030Z,22.37
2024-05-09T00:43:07.574Z,26.17
2024-05-09T00:45:34.393Z,23.50
2024-05-09T00:48:01.566Z,22.20
2024-05-09T00:50:35.651Z,21.70
2024-05-09T00:53:04.226Z,22.00
2024-05-09T00:55:31.066Z,22.10
2024-05-09T00:57:57.842Z,21.30
2024-05-09T01:00:31.655Z,23.93
2024-05-09T01:03:05.586Z,21.70
2024-05-09T01:05:33.007Z,23.73
2024-05-09T01:07:59.862Z,23.63
2024-05-09T01:10:33.657Z,22.57
2024-05-09T01:13:02.113Z,22.40
2024-05-09T01:15:29.013Z,23.07
2024-05-09T01:17:56.493Z,25.57
2024-05-09T01:20:32.262Z,26.40
2024-05-09T01:23:07.274Z,26.23
2024-05-09T01:25:34.317Z,28.93
2024-05-09T01:28:01.243Z,29.73
2024-05-09T01:30:34.331Z,25.50
2024-05-09T01:33:04.024Z,27.40
2024-05-09T01:35:31.301Z,27.67
2024-05-09T01:37:58.280Z,27.60
2024-05-09T01:40:33.769Z,26.67
2024-05-09T01:43:04.692Z,29.67
2024-05-09T01:45:31.619Z,29.70
2024-05-09T01:47:58.669Z,25.57
2024-05-09T01:50:37.017Z,28.73
2024-05-09T01:53:07.527Z,24.30
2024-05-09T01:55:34.443Z,25.47
2024-05-09T01:58:01.301Z,26.87
2024-05-09T02:00:37.966Z,26.87
2024-05-09T02:03:14.095Z,23.67
2024-05-09T02:05:43.334Z,28.27
2024-05-09T02:08:10.652Z,28.70
2024-05-09T02:10:37.725Z,27.80
2024-05-09T02:13:04.503Z,28.30
2024-05-09T02:15:31.300Z,28.33
2024-05-09T02:17:58.296Z,28.40
2024-05-09T02:20:33.545Z,26.73
2024-05-09T02:23:05.082Z,25.80
2024-05-09T02:25:32.418Z,27.17
2024-05-09T02:27:59.502Z,26.17
2024-05-09T02:30:36.095Z,27.80
2024-05-09T02:33:07.657Z,26.00
2024-05-09T02:35:35.017Z,23.50
2024-05-09T02:38:02.036Z,22.90
2024-05-09T02:40:36.214Z,24.63
2024-05-09T02:43:05.774Z,23.90
2024-05-09T02:45:32.934Z,23.70
2024-05-09T02:48:00.182Z,25.90
2024-05-09T02:50:34.422Z,22.10
2024-05-09T02:53:05.697Z,25.90
2024-05-09T02:55:32.912Z,25.60
2024-05-09T02:58:00.003Z,24.50
2024-05-09T03:00:35.142Z,21.07
2024-05-09T03:03:07.146Z,20.77
2024-05-09T03:05:34.436Z,23.30
2024-05-09T03:08:01.470Z,25.80
2024-05-09T03:10:29.087Z,23.10
2024-05-09T03:13:01.404Z,23.27
2024-05-09T03:15:32.178Z,21.37
2024-05-09T03:18:00.347Z,23.43
2024-05-09T03:20:33.101Z,23.73
2024-05-09T03:23:02.406Z,22.10
2024-05-09T03:25:29.338Z,24.37
2024-05-09T03:27:56.113Z,24.90
2024-05-09T03:30:35.824Z,25.00
2024-05-09T03:33:08.366Z,22.20
2024-05-09T03:35:35.312Z,24.17
2024-05-09T03:38:02.358Z,20.93
2024-05-09T03:40:30.972Z,23.80
2024-05-09T03:42:58.861Z,22.10
2024-05-09T03:45:25.783Z,22.40
2024-05-09T03:47:53.046Z,23.43
2024-05-09T03:50:26.327Z,25.20
2024-05-09T03:53:00.420Z,24.53
2024-05-09T03:55:27.404Z,23.00
2024-05-09T03:57:54.225Z,25.80
2024-05-09T04:00:30.540Z,23.20
2024-05-09T04:03:03.988Z,24.07
2024-05-09T04:05:31.444Z,23.33
2024-05-09T04:07:58.516Z,25.23
2024-05-09T04:10:32.449Z,22.70
2024-05-09T04:13:00.847Z,23.50
2024-05-09T04:15:27.661Z,24.97
2024-05-09T04:17:54.764Z,24.57
2024-05-09T04:20:32.830Z,24.73
2024-05-09T04:23:05.047Z,24.17
2024-05-09T04:25:31.805Z,22.87
2024-05-09T04:27:58.595Z,25.40
2024-05-09T04:30:34.628Z,23.30
2024-05-09T04:33:06.446Z,23.43
2024-05-09T04:35:34.089Z,23.90
2024-05-09T04:38:01.306Z,24.13
2024-05-09T04:40:33.438Z,26.07
2024-05-09T04:43:02.712Z,28.30
2024-05-09T04:45:29.520Z,28.83
2024-05-09T04:47:56.536Z,26.83
2024-05-09T04:50:30.403Z,29.87
2024-05-09T04:53:03.378Z,28.20
2024-05-09T04:55:30.429Z,27.10
2024-05-09T04:57:57.202Z,26.43
2024-05-09T05:00:32.475Z,31.07
2024-05-09T05:03:05.965Z,26.60
2024-05-09T05:05:33.061Z,28.73
2024-05-09T05:08:00.716Z,29.40
2024-05-09T05:10:33.817Z,29.23
2024-05-09T05:13:24.813Z,29.20
2024-05-09T05:15:52.541Z,30.23
2024-05-09T05:18:19.657Z,29.50
2024-05-09T05:20:46.816Z,31.77
2024-05-09T05:23:14.135Z,30.30
2024-05-09T05:25:41.237Z,31.10
2024-05-09T05:28:08.034Z,30.80
2024-05-09T05:30:35.305Z,32.30
2024-05-09T05:33:02.507Z,30.87
2024-05-09T05:35:29.493Z,29.47
2024-05-09T05:37:56.371Z,30.83
2024-05-09T05:40:32.146Z,29.93
2024-05-09T05:43:02.687Z,29.30
2024-05-09T05:45:29.500Z,32.20
2024-05-09T05:47:56.645Z,30.97
2024-05-09T05:50:32.550Z,31.90
2024-05-09T05:53:03.276Z,29.10
2024-05-09T05:55:30.355Z,29.80
2024-05-09T05:57:57.245Z,29.03
2024-05-09T06:02:54.062Z,30.20
2024-05-09T06:05:21.087Z,28.17
2024-05-09T06:07:47.943Z,30.10
2024-05-09T06:10:21.300Z,29.70
2024-05-09T06:12:52.441Z,32.47
2024-05-09T06:15:19.183Z,29.23
2024-05-09T06:17:46.103Z,30.13
2024-05-09T06:20:20.263Z,28.83
2024-05-09T06:22:50.988Z,27.80
2024-05-09T06:25:17.870Z,29.27
2024-05-09T06:27:44.789Z,30.37
2024-05-09T06:30:24.844Z,27.10
2024-05-09T06:32:56.412Z,29.13
2024-05-09T06:35:23.363Z,28.80
2024-05-09T06:37:50.268Z,28.63
2024-05-09T06:40:21.443Z,28.70
2024-05-09T06:42:54.062Z,27.77
2024-05-09T06:45:20.824Z,27.00
2024-05-09T06:47:47.728Z,31.00
2024-05-09T06:50:23.256Z,28.97
2024-05-09T06:52:51.459Z,28.30
2024-05-09T06:55:18.292Z,28.10
2024-05-09T06:57:45.206Z,27.73
2024-05-09T07:00:19.009Z,29.00
2024-05-09T07:02:54.080Z,29.10
2024-05-09T07:05:20.962Z,28.03
2024-05-09T07:07:47.819Z,27.90
2024-05-09T07:10:21.962Z,28.50
2024-05-09T07:12:55.241Z,27.20
2024-05-09T07:15:21.979Z,29.10
2024-05-09T07:17:48.854Z,29.00
2024-05-09T07:20:23.493Z,24.33
2024-05-09T07:23:03.616Z,25.93
2024-05-09T07:25:41.267Z,25.47
2024-05-09T07:28:08.455Z,24.67
2024-05-09T07:30:35.431Z,24.37
2024-05-09T07:33:03.063Z,25.50
2024-05-09T07:35:30.934Z,22.73
2024-05-09T07:37:58.349Z,23.20
2024-05-09T07:40:32.978Z,22.67
2024-05-09T07:43:03.091Z,20.60
2024-05-09T07:45:45.924Z,19.23
2024-05-09T07:49:59.724Z,16.50
2024-05-09T07:53:42.926Z,15.63
2024-05-09T07:56:13.650Z,15.70
2024-05-09T07:58:40.676Z,13.20
2024-05-09T08:01:07.602Z,12.80
2024-05-09T08:03:34.708Z,10.63
2024-05-09T08:06:01.695Z,9.13
2024-05-09T08:08:28.429Z,9.33
2024-05-09T08:10:55.316Z,11.37
2024-05-09T08:13:22.223Z,9.47
2024-05-09T08:15:49.149Z,11.67
2024-05-09T08:18:16.094Z,9.50
2024-05-09T08:20:42.939Z,9.20
2024-05-09T08:23:09.759Z,9.67
2024-05-09T08:25:36.542Z,9.20
2024-05-09T08:28:03.511Z,8.67
2024-05-09T08:30:36.344Z,8.77
2024-05-09T08:33:05.474Z,7.83
2024-05-09T08:35:32.956Z,7.50
2024-05-09T08:38:00.051Z,6.83
2024-05-09T08:40:34.059Z,7.80
2024-05-09T08:43:03.274Z,8.30
2024-05-09T08:45:30.539Z,7.63
2024-05-09T08:47:57.828Z,7.27
2024-05-09T08:50:32.268Z,6.37
2024-05-09T08:53:05.149Z,6.27
2024-05-09T08:55:32.023Z,7.67
2024-05-09T08:57:59.164Z,7.70
2024-05-09T09:00:33.990Z,6.27
2024-05-09T09:03:04.455Z,6.10
2024-05-09T09:05:31.769Z,5.67
2024-05-09T09:07:58.809Z,6.30
2024-05-09T09:10:31.647Z,6.47
2024-05-09T09:13:00.732Z,6.50
2024-05-09T09:15:27.744Z,5.70
2024-05-09T09:17:54.726Z,5.97
2024-05-09T09:20:28.728Z,6.23
2024-05-09T09:23:00.645Z,5.50
2024-05-09T09:25:27.497Z,5.70
2024-05-09T09:27:54.272Z,5.10
2024-05-09T09:30:31.550Z,5.50
2024-05-09T09:33:03.601Z,5.03
2024-05-09T09:35:30.684Z,5.73
2024-05-09T09:37:57.512Z,5.57
2024-05-09T09:40:30.971Z,5.57
2024-05-09T09:42:59.357Z,5.50
2024-05-09T09:45:26.421Z,6.67
2024-05-09T09:47:53.310Z,6.50
2024-05-09T09:50:27.360Z,5.20
2024-05-09T09:52:58.599Z,6.50
2024-05-09T09:55:25.886Z,6.57
2024-05-09T09:57:52.818Z,6.27
2024-05-09T10:00:24.645Z,6.27
2024-05-09T10:02:57.331Z,6.63
2024-05-09T10:05:24.500Z,6.07
2024-05-09T10:07:51.380Z,6.10
2024-05-09T10:12:46.725Z,6.13
2024-05-09T10:15:14.061Z,6.53
2024-05-09T10:17:40.938Z,6.17
2024-05-09T10:20:14.789Z,6.50
2024-05-09T10:22:51.432Z,6.27
2024-05-09T10:25:18.382Z,5.73
2024-05-09T10:27:45.210Z,6.40
2024-05-09T10:30:17.852Z,5.37
2024-05-09T10:32:54.418Z,5.13
2024-05-09T10:35:22.482Z,4.90
2024-05-09T10:37:51.131Z,6.70
2024-05-09T10:40:25.919Z,8.50
2024-05-09T10:42:56.378Z,5.90
2024-05-09T10:45:24.678Z,8.70
2024-05-09T10:47:51.801Z,8.90
2024-05-09T10:50:25.653Z,9.20
2024-05-09T10:52:55.844Z,8.70
2024-05-09T10:55:22.802Z,10.03
2024-05-09T10:57:49.972Z,8.73
2024-05-09T11:00:27.007Z,9.60
2024-05-09T11:02:57.213Z,8.37
2024-05-09T11:05:24.063Z,6.47
2024-05-09T11:07:50.950Z,8.50
2024-05-09T11:10:27.310Z,6.53
2024-05-09T11:12:58.699Z,6.43
2024-05-09T11:15:25.960Z,6.13
2024-05-09T11:17:52.862Z,6.93
2024-05-09T11:20:26.710Z,7.17
2024-05-09T11:22:56.499Z,6.87
2024-05-09T11:25:23.255Z,6.27
2024-05-09T11:27:50.113Z,7.13
2024-05-09T11:30:24.183Z,7.20
2024-05-09T11:32:56.855Z,5.77
2024-05-09T11:35:24.083Z,6.50
2024-05-09T11:37:50.781Z,7.87
2024-05-09T11:40:25.182Z,7.00
2024-05-09T11:42:55.288Z,6.87
2024-05-09T11:45:22.144Z,7.13
2024-05-09T11:47:48.999Z,7.20
2024-05-09T11:50:22.637Z,6.33
2024-05-09T11:52:56.247Z,7.83
2024-05-09T11:55:27.374Z,6.90
2024-05-09T11:57:55.142Z,6.47
2024-05-09T12:00:29.552Z,7.00
2024-05-09T12:03:05.004Z,7.07
2024-05-09T12:05:32.631Z,7.60
2024-05-09T12:07:59.638Z,6.17
2024-05-09T12:10:32.802Z,7.40
2024-05-09T12:13:02.389Z,6.10
2024-05-09T12:15:29.619Z,7.43
2024-05-09T12:17:58.931Z,7.60
2024-05-09T12:20:35.427Z,7.90
2024-05-09T12:23:05.205Z,7.27
2024-05-09T12:25:32.048Z,8.60
2024-05-09T12:27:58.975Z,6.43
2024-05-09T12:30:34.973Z,7.53
2024-05-09T12:33:05.395Z,7.17
2024-05-09T12:35:32.330Z,8.27
2024-05-09T12:37:59.167Z,6.47
2024-05-09T12:40:33.446Z,7.00
2024-05-09T12:43:03.280Z,7.20
2024-05-09T12:45:30.112Z,6.03
2024-05-09T12:47:56.979Z,6.90
2024-05-09T12:50:31.033Z,5.90
2024-05-09T12:52:59.801Z,6.73
2024-05-09T12:55:27.971Z,6.23
2024-05-09T12:57:55.045Z,7.43
2024-05-09T13:00:28.186Z,6.30
2024-05-09T13:03:00.956Z,6.80
2024-05-09T13:05:28.500Z,6.67
2024-05-09T13:07:56.866Z,6.90
2024-05-09T13:10:30.842Z,7.13
2024-05-09T13:13:00.180Z,7.80
2024-05-09T13:15:27.349Z,6.73
2024-05-09T13:17:56.351Z,6.80
2024-05-09T13:20:29.661Z,6.70
2024-05-09T13:22:59.981Z,7.27
2024-05-09T13:25:26.738Z,5.60
2024-05-09T13:27:53.468Z,4.97
2024-05-09T13:30:29.039Z,4.70
2024-05-09T13:33:04.070Z,6.80
2024-05-09T13:35:32.065Z,6.93
2024-05-09T13:37:58.929Z,6.17
2024-05-09T13:40:32.741Z,6.10
2024-05-09T13:43:02.324Z,5.93
2024-05-09T13:45:29.340Z,5.50
2024-05-09T13:47:56.420Z,6.10
2024-05-09T13:50:31.578Z,6.63
2024-05-09T13:53:02.234Z,5.57
2024-05-09T13:55:29.081Z,5.40
2024-05-09T13:57:56.266Z,5.63
2024-05-09T14:00:37.455Z,5.07
2024-05-09T14:03:10.142Z,6.17
2024-05-09T14:05:37.195Z,5.67
2024-05-09T14:08:04.224Z,5.40
2024-05-09T14:10:32.216Z,6.10
2024-05-09T14:12:59.525Z,4.67
2024-05-09T14:15:26.530Z,6.23
2024-05-09T14:17:53.387Z,5.00
2024-05-09T14:20:30.001Z,4.70
2024-05-09T14:22:58.733Z,5.60
2024-05-09T14:25:26.635Z,4.50
2024-05-09T14:27:55.271Z,5.00
2024-05-09T14:30:30.658Z,4.87
2024-05-09T14:33:03.475Z,4.60
2024-05-09T14:35:30.354Z,5.10
2024-05-09T14:37:57.106Z,6.50
2024-05-09T14:40:36.525Z,5.70
2024-05-09T14:43:08.634Z,4.97
2024-05-09T14:45:35.831Z,4.90
2024-05-09T14:48:03.166Z,4.70
2024-05-09T14:50:36.022Z,5.23
2024-05-09T14:53:06.401Z,4.93
2024-05-09T14:55:35.628Z,4.97
2024-05-09T14:58:02.980Z,5.77
2024-05-09T15:00:35.474Z,5.23
2024-05-09T15:03:03.708Z,4.73
2024-05-09T15:05:30.675Z,4.40
2024-05-09T15:07:57.768Z,4.63
2024-05-09T15:10:33.615Z,4.70
2024-05-09T15:13:02.859Z,4.07
2024-05-09T15:15:29.960Z,3.70
2024-05-09T15:17:57.162Z,4.20
2024-05-09T15:20:31.312Z,3.70
2024-05-09T15:23:02.342Z,4.50
2024-05-09T15:25:29.460Z,4.90
2024-05-09T15:27:56.457Z,3.50
2024-05-09T15:30:30.436Z,3.67
2024-05-09T15:32:59.979Z,4.43
2024-05-09T15:35:27.061Z,4.53
2024-05-09T15:37:53.944Z,5.33
2024-05-09T15:40:30.596Z,4.00
2024-05-09T15:43:04.778Z,3.63
2024-05-09T15:45:31.956Z,5.27
2024-05-09T15:47:59.107Z,4.10
2024-05-09T15:50:35.658Z,4.00
2024-05-09T15:53:06.998Z,4.30
2024-05-09T15:55:34.852Z,3.90
2024-05-09T15:58:02.158Z,4.03
2024-05-09T16:00:37.385Z,3.23
2024-05-09T16:03:07.790Z,3.97
2024-05-09T16:05:34.720Z,3.60
2024-05-09T16:08:01.698Z,4.10
2024-05-09T16:10:32.663Z,4.80
2024-05-09T16:13:01.138Z,3.90
2024-05-09T16:15:28.114Z,4.40
2024-05-09T16:17:55.339Z,4.67
2024-05-09T16:20:33.759Z,3.57
2024-05-09T16:23:06.452Z,4.10
2024-05-09T16:25:33.335Z,3.70
2024-05-09T16:28:00.687Z,3.40
2024-05-09T16:30:34.089Z,5.30
2024-05-09T16:33:03.221Z,4.27
2024-05-09T16:35:30.550Z,4.37
2024-05-09T16:37:57.460Z,4.70
2024-05-09T16:40:36.113Z,4.00
2024-05-09T16:43:06.981Z,3.40
2024-05-09T16:45:34.334Z,3.83
2024-05-09T16:48:01.365Z,3.93
2024-05-09T16:50:32.732Z,5.10
2024-05-09T16:53:01.427Z,4.80
2024-05-09T16:55:28.302Z,4.33
2024-05-09T16:57:55.232Z,3.27
2024-05-09T17:00:31.524Z,3.90
2024-05-09T17:03:06.966Z,4.40
2024-05-09T17:05:34.464Z,4.00
2024-05-09T17:08:01.672Z,4.00
2024-05-09T17:10:32.999Z,4.37
2024-05-09T17:13:01.888Z,4.07
2024-05-09T17:15:28.792Z,4.30
2024-05-09T17:17:55.623Z,3.30
2024-05-09T17:20:29.662Z,4.20
2024-05-09T17:23:00.805Z,4.53
2024-05-09T17:25:27.607Z,4.60
2024-05-09T17:27:55.552Z,3.70
2024-05-09T17:30:31.839Z,4.23
2024-05-09T17:33:02.589Z,4.37
2024-05-09T17:35:29.469Z,4.73
2024-05-09T17:37:56.800Z,4.57
2024-05-09T17:42:53.416Z,4.60
2024-05-09T17:45:20.633Z,3.00
2024-05-09T17:47:47.755Z,4.10
2024-05-09T17:50:21.037Z,3.67
2024-05-09T17:52:53.983Z,3.67
2024-05-09T17:55:21.414Z,4.17
2024-05-09T17:57:48.533Z,3.83
2024-05-09T18:00:24.522Z,3.93
2024-05-09T18:03:00.498Z,3.57
2024-05-09T18:05:29.083Z,4.13
2024-05-09T18:07:57.023Z,4.20
2024-05-09T18:10:29.989Z,3.60
2024-05-09T18:13:02.919Z,3.80
2024-05-09T18:15:29.813Z,3.70
2024-05-09T18:17:56.750Z,3.33
2024-05-09T18:20:33.116Z,3.57
2024-05-09T18:23:08.259Z,4.33
2024-05-09T18:25:35.152Z,3.40
2024-05-09T18:28:02.063Z,4.17
2024-05-09T18:30:34.412Z,3.93
2024-05-09T18:33:03.599Z,3.50
2024-05-09T18:35:30.549Z,3.30
2024-05-09T18:37:57.303Z,4.43
2024-05-09T18:40:31.347Z,4.00
2024-05-09T18:43:02.332Z,4.30
2024-05-09T18:45:29.188Z,4.50
2024-05-09T18:47:56.048Z,4.70
2024-05-09T18:50:31.944Z,4.47
2024-05-09T18:53:03.523Z,4.50
2024-05-09T18:55:30.427Z,4.27
2024-05-09T18:57:57.414Z,4.20
2024-05-09T19:00:33.275Z,4.70
2024-05-09T19:03:06.000Z,4.43
2024-05-09T19:05:33.537Z,4.40
2024-05-09T19:08:00.662Z,4.27
2024-05-09T19:10:33.918Z,4.67
2024-05-09T19:13:05.409Z,4.90
2024-05-09T19:15:35.884Z,5.00
2024-05-09T19:18:03.043Z,5.03
2024-05-09T19:20:34.350Z,4.80
2024-05-09T19:23:02.839Z,5.13
2024-05-09T19:25:29.829Z,4.33
2024-05-09T19:27:56.661Z,5.10
2024-05-09T19:30:30.514Z,6.00
2024-05-09T19:33:05.182Z,5.23
2024-05-09T19:35:32.517Z,5.30
2024-05-09T19:37:59.340Z,5.87
2024-05-09T19:40:31.384Z,6.30
2024-05-09T19:43:00.355Z,6.07
2024-05-09T19:45:27.370Z,6.13
2024-05-09T19:47:54.584Z,6.10
2024-05-09T19:50:30.235Z,7.00
2024-05-09T19:53:03.318Z,5.53
2024-05-09T19:55:30.104Z,6.13
2024-05-09T19:57:57.229Z,5.17
2024-05-09T20:00:32.523Z,6.90
2024-05-09T20:03:03.067Z,6.17
2024-05-09T20:05:31.238Z,7.23
2024-05-09T20:07:58.259Z,6.97
2024-05-09T20:10:31.405Z,7.90
2024-05-09T20:13:00.478Z,6.83
2024-05-09T20:15:27.392Z,6.40
2024-05-09T20:17:55.130Z,6.50
2024-05-09T20:22:51.986Z,7.40
2024-05-09T20:25:18.867Z,6.57
2024-05-09T20:27:45.902Z,7.77
2024-05-09T20:30:17.274Z,6.50
2024-05-09T20:32:51.844Z,7.33
2024-05-09T20:35:18.808Z,6.90
2024-05-09T20:37:45.673Z,7.90
2024-05-09T20:40:21.109Z,7.07
2024-05-09T20:42:52.422Z,7.57
2024-05-09T20:45:19.356Z,7.70
2024-05-09T20:47:46.295Z,8.70
2024-05-09T20:50:23.092Z,7.10
2024-05-09T20:52:56.154Z,8.83
2024-05-09T20:55:23.039Z,8.03
2024-05-09T20:57:49.936Z,8.70
2024-05-09T21:00:19.274Z,7.90
2024-05-09T21:02:52.586Z,8.47
2024-05-09T21:05:19.714Z,8.97
2024-05-09T21:07:46.755Z,8.10
2024-05-09T21:10:19.425Z,7.70
2024-05-09T21:12:49.572Z,7.93
2024-05-09T21:15:16.437Z,8.60
2024-05-09T21:17:43.438Z,7.40
2024-05-09T21:20:17.022Z,8.23
2024-05-09T21:22:47.423Z,7.90
2024-05-09T21:25:14.404Z,7.40
2024-05-09T21:27:41.446Z,8.03
2024-05-09T21:30:13.271Z,9.43
2024-05-09T21:32:45.726Z,8.27
2024-05-09T21:35:12.703Z,8.97
2024-05-09T21:37:39.493Z,8.43
2024-05-09T21:40:11.288Z,7.73
2024-05-09T21:42:40.822Z,8.57
2024-05-09T21:45:07.704Z,8.23
2024-05-09T21:47:34.616Z,8.97
2024-05-09T21:50:01.481Z,8.90
2024-05-09T21:52:28.311Z,8.80
2024-05-09T21:54:55.094Z,9.60
2024-05-09T21:57:22.101Z,9.60
2024-05-09T21:59:48.856Z,7.50
2024-05-09T22:02:15.863Z,9.90
2024-05-09T22:04:42.994Z,9.90
2024-05-09T22:07:10.062Z,8.63
2024-05-09T22:09:36.988Z,8.07
2024-05-09T22:12:04.808Z,9.80
2024-05-09T22:14:31.920Z,9.73
2024-05-09T22:16:58.860Z,10.07
2024-05-09T22:19:25.704Z,10.60
2024-05-09T22:21:52.754Z,8.70
2024-05-09T22:24:19.525Z,9.13
2024-05-09T22:26:46.282Z,7.90
2024-05-09T22:29:12.967Z,9.50
2024-05-09T22:31:39.674Z,8.87
2024-05-09T22:34:06.552Z,9.40
2024-05-09T22:36:33.695Z,8.03
2024-05-09T22:39:00.513Z,9.00
2024-05-09T22:41:27.523Z,10.17
2024-05-09T22:43:54.515Z,9.60
2024-05-09T22:46:21.309Z,9.17
2024-05-09T22:48:48.167Z,9.70
2024-05-09T22:51:14.986Z,9.00
2024-05-09T22:53:41.793Z,10.30
2024-05-09T22:56:08.598Z,10.00
2024-05-09T22:58:35.376Z,9.33
2024-05-09T23:01:02.244Z,9.47
2024-05-09T23:03:29.103Z,9.40
2024-05-09T23:05:55.948Z,10.33
2024-05-09T23:08:22.745Z,8.90
2024-05-09T23:10:49.720Z,9.60
2024-05-09T23:13:16.698Z,9.80
2024-05-09T23:15:43.655Z,9.63
2024-05-09T23:18:10.785Z,9.60
2024-05-09T23:20:39.694Z,9.43
2024-05-09T23:23:07.324Z,9.43
2024-05-09T23:25:34.234Z,10.27
2024-05-09T23:28:01.197Z,8.63
2024-05-09T23:30:34.704Z,9.67
2024-05-09T23:33:05.874Z,10.47
2024-05-09T23:35:32.902Z,9.57
2024-05-09T23:37:59.719Z,9.97
2024-05-09T23:40:35.044Z,11.60
2024-05-09T23:43:05.873Z,9.90
2024-05-09T23:45:32.792Z,8.53
2024-05-09T23:47:59.950Z,11.03
2024-05-09T23:50:34.026Z,12.07
2024-05-09T23:53:03.704Z,10.67
2024-05-09T23:55:31.445Z,11.57
2024-05-09T23:57:58.566Z,13.20
